createdAt,value
2019-06-10T00:00:26.005Z,99.90
2019-06-10T00:05:30.868Z,99.80
2019-06-10T00:10:35.511Z,99.90
2019-06-10T00:15:53.381Z,99.70
2019-06-10T00:20:59.820Z,99.90
2019-06-10T00:26:07.628Z,99.90
2019-06-10T00:31:12.751Z,99.90
2019-06-10T00:36:18.171Z,99.90
2019-06-10T00:41:24.422Z,99.90
2019-06-10T00:46:31.500Z,99.90
2019-06-10T00:51:35.481Z,99.90
2019-06-10T00:56:41.329Z,99.90
2019-06-10T01:01:46.395Z,99.90
2019-06-10T01:06:51.717Z,99.90
2019-06-10T01:11:56.721Z,99.90
2019-06-10T01:17:01.946Z,99.90
2019-06-10T01:22:13.781Z,99.90
2019-06-10T01:27:21.225Z,99.90
2019-06-10T01:32:26.806Z,99.90
2019-06-10T01:37:32.766Z,99.90
2019-06-10T01:42:41.292Z,99.90
2019-06-10T01:47:45.953Z,99.90
2019-06-10T01:52:51.562Z,99.90
2019-06-10T01:58:08.171Z,99.90
2019-06-10T02:03:16.643Z,99.90
2019-06-10T02:08:22.346Z,99.90
2019-06-10T02:13:32.768Z,99.90
2019-06-10T02:18:38.134Z,99.90
2019-06-10T02:23:42.940Z,99.90
2019-06-10T02:29:11.636Z,99.90
2019-06-10T02:34:21.797Z,99.90
2019-06-10T02:39:33.432Z,99.90
2019-06-10T02:44:44.643Z,99.90
2019-06-10T02:49:59.063Z,99.90
2019-06-10T02:54:56.387Z,99.90
2019-06-10T03:00:06.479Z,99.90
2019-06-10T03:05:13.907Z,99.90
2019-06-10T03:10:19.119Z,99.90
2019-06-10T03:15:25.151Z,99.90
2019-06-10T03:20:32.207Z,99.90
2019-06-10T03:25:38.989Z,99.90
2019-06-10T03:30:52.803Z,99.90
2019-06-10T03:35:52.302Z,99.90
2019-06-10T03:40:58.558Z,99.90
2019-06-10T03:46:03.489Z,99.90
2019-06-10T03:51:09.220Z,99.90
2019-06-10T03:56:14.099Z,99.90
2019-06-10T04:01:24.379Z,99.90
2019-06-10T04:06:27.671Z,99.90
2019-06-10T04:11:35.453Z,99.90
2019-06-10T04:16:39.734Z,99.90
2019-06-10T04:21:45.517Z,99.90
2019-06-10T04:26:52.612Z,99.90
2019-06-10T04:31:57.429Z,99.90
2019-06-10T04:42:29.333Z,99.90
2019-06-10T04:47:52.794Z,99.90
2019-06-10T04:53:16.974Z,99.90
2019-06-10T04:58:43.034Z,99.90
2019-06-10T05:04:06.013Z,99.90
2019-06-10T05:09:31.282Z,99.90
2019-06-10T05:14:54.843Z,99.90
2019-06-10T05:20:18.076Z,99.90
2019-06-10T05:25:42.793Z,99.90
2019-06-10T05:31:07.224Z,99.90
2019-06-10T05:36:34.363Z,99.90
2019-06-10T05:41:56.164Z,99.90
2019-06-10T05:47:20.120Z,99.90
2019-06-10T05:52:43.481Z,99.90
2019-06-10T05:58:07.499Z,99.90
2019-06-10T06:03:35.096Z,99.90
2019-06-10T06:08:56.529Z,99.90
2019-06-10T06:14:22.641Z,99.90
2019-06-10T06:19:46.573Z,99.90
2019-06-10T06:25:15.295Z,99.90
2019-06-10T06:30:37.635Z,99.90
2019-06-10T06:36:03.550Z,99.90
2019-06-10T06:41:27.665Z,99.90
2019-06-10T06:46:53.289Z,99.90
2019-06-10T06:52:16.360Z,99.90
2019-06-10T06:57:47.683Z,99.90
2019-06-10T07:03:14.836Z,99.90
2019-06-10T07:08:41.471Z,99.90
2019-06-10T07:14:05.558Z,99.90
2019-06-10T07:19:29.283Z,99.90
2019-06-10T07:24:53.105Z,99.90
2019-06-10T07:30:18.224Z,99.90
2019-06-10T07:35:44.119Z,99.90
2019-06-10T07:41:07.604Z,99.90
2019-06-10T07:46:33.532Z,99.90
2019-06-10T07:52:12.012Z,99.90
2019-06-10T07:57:25.311Z,99.90
2019-06-10T08:09:14.004Z,99.90
2019-06-10T08:14:42.632Z,99.90
2019-06-10T08:20:05.995Z,99.90
2019-06-10T08:25:32.767Z,99.90
2019-06-10T08:30:55.761Z,99.90
2019-06-10T08:36:22.248Z,99.90
2019-06-10T08:41:47.800Z,99.90
2019-06-10T08:47:12.406Z,99.90
2019-06-10T08:52:56.899Z,99.90
2019-06-10T08:58:04.522Z,99.90
2019-06-10T09:03:28.646Z,99.90
2019-06-10T09:08:54.641Z,99.90
2019-06-10T09:14:19.685Z,99.90
2019-06-10T09:19:48.835Z,99.90
2019-06-10T09:25:12.764Z,99.90
2019-06-10T09:30:37.035Z,99.50
2019-06-10T09:36:02.999Z,99.90
2019-06-10T09:41:36.275Z,99.90
2019-06-10T09:46:55.943Z,98.20
2019-06-10T09:52:17.130Z,97.10
2019-06-10T09:57:43.390Z,98.70
2019-06-10T10:03:05.375Z,96.40
2019-06-10T10:08:29.256Z,98.20
2019-06-10T10:13:52.775Z,97.30
2019-06-10T10:19:16.104Z,97.00
2019-06-10T10:24:39.529Z,95.70
2019-06-10T10:30:03.917Z,94.80
2019-06-10T10:35:28.183Z,95.30
2019-06-10T10:40:58.504Z,97.70
2019-06-10T10:46:19.139Z,94.10
2019-06-10T10:51:42.983Z,93.80
2019-06-10T10:57:06.417Z,95.30
2019-06-10T11:02:32.217Z,93.10
2019-06-10T11:07:56.727Z,94.00
2019-06-10T11:13:23.048Z,95.10
2019-06-10T11:18:47.225Z,94.70
2019-06-10T11:24:14.273Z,94.60
2019-06-10T11:29:37.624Z,94.20
2019-06-10T11:35:02.926Z,93.80
2019-06-10T11:40:26.638Z,94.80
2019-06-10T11:45:56.892Z,98.40
2019-06-10T11:51:17.152Z,97.10
2019-06-10T11:56:42.198Z,95.10
2019-06-10T12:02:06.409Z,93.40
2019-06-10T12:07:33.032Z,92.90
2019-06-10T12:12:58.188Z,92.70
2019-06-10T12:18:22.713Z,94.70
2019-06-10T12:23:44.904Z,93.10
2019-06-10T12:29:08.278Z,92.20
2019-06-10T12:34:33.339Z,92.80
2019-06-10T12:39:59.424Z,94.80
2019-06-10T12:45:23.346Z,96.10
2019-06-10T12:50:48.036Z,94.80
2019-06-10T12:56:14.789Z,95.20
2019-06-10T13:01:36.893Z,95.30
2019-06-10T13:07:05.178Z,95.00
2019-06-10T13:12:27.116Z,94.60
2019-06-10T13:17:53.769Z,92.60
2019-06-10T13:23:23.892Z,94.50
2019-06-10T13:28:44.042Z,93.50
2019-06-10T13:34:11.121Z,97.00
2019-06-10T13:39:34.274Z,96.30
2019-06-10T13:44:57.911Z,96.40
2019-06-10T13:50:22.113Z,93.80
2019-06-10T13:55:46.029Z,93.10
2019-06-10T14:01:17.835Z,91.10
2019-06-10T14:06:46.100Z,91.50
2019-06-10T14:12:00.306Z,92.20
2019-06-10T14:17:26.311Z,91.30
2019-06-10T14:22:49.486Z,90.80
2019-06-10T14:28:25.862Z,90.10
2019-06-10T14:33:45.921Z,89.50
2019-06-10T14:39:38.511Z,90.80
2019-06-10T14:46:07.202Z,90.40
2019-06-10T14:51:39.814Z,91.80
2019-06-10T15:03:52.160Z,96.00
2019-06-10T15:09:15.739Z,98.40
2019-06-10T15:14:43.915Z,99.90
2019-06-10T15:32:48.368Z,99.90
2019-06-10T15:38:32.701Z,99.90
2019-06-10T15:43:57.903Z,99.90
2019-06-10T15:49:25.952Z,99.90
2019-06-10T15:54:49.190Z,99.90
2019-06-10T16:00:17.636Z,99.90
2019-06-10T16:05:39.215Z,99.90
2019-06-10T16:11:03.114Z,99.90
2019-06-10T16:16:29.157Z,99.90
2019-06-10T16:21:53.594Z,99.90
2019-06-10T16:27:17.914Z,99.90
2019-06-10T16:32:41.796Z,99.90
2019-06-10T16:38:07.532Z,99.90
2019-06-10T16:43:33.430Z,99.90
2019-06-10T16:48:58.764Z,99.90
2019-06-10T16:54:25.859Z,99.90
2019-06-10T16:59:52.057Z,99.90
2019-06-10T17:05:16.490Z,99.90
2019-06-10T17:10:40.125Z,99.90
2019-06-10T17:16:07.313Z,99.90
2019-06-10T17:21:34.624Z,99.90
2019-06-10T17:26:57.910Z,99.90
2019-06-10T17:32:25.296Z,99.90
2019-06-10T17:37:53.687Z,99.90
2019-06-10T17:43:17.488Z,99.90
2019-06-10T17:48:44.521Z,99.90
2019-06-10T17:54:12.787Z,99.90
2019-06-10T18:21:24.405Z,99.90
2019-06-10T18:26:47.275Z,99.90
2019-06-10T18:32:12.447Z,99.90
2019-06-10T18:37:38.756Z,99.90
2019-06-10T18:50:02.829Z,99.90
2019-06-10T19:08:46.876Z,99.90
2019-06-10T19:20:59.183Z,99.90
2019-06-10T19:45:55.013Z,99.90
2019-06-10T19:51:18.485Z,99.90
2019-06-10T19:56:46.886Z,99.90
2019-06-10T20:02:11.306Z,99.90
2019-06-10T20:07:36.326Z,99.90
2019-06-10T20:13:01.595Z,99.90
2019-06-10T20:18:27.567Z,99.90
2019-06-10T20:23:54.253Z,99.90
2019-06-10T20:29:22.170Z,99.90
2019-06-10T20:34:49.623Z,99.90
2019-06-10T20:40:14.263Z,99.90
2019-06-10T20:45:39.465Z,99.90
2019-06-10T20:51:05.183Z,99.90
2019-06-10T20:56:33.804Z,99.90
2019-06-10T21:01:58.210Z,99.90
2019-06-10T21:07:24.703Z,99.90
2019-06-10T21:12:52.726Z,99.90
2019-06-10T21:18:22.805Z,99.90
2019-06-10T21:30:36.586Z,99.90
2019-06-10T21:35:48.557Z,99.90
2019-06-10T21:41:22.835Z,99.90
2019-06-10T21:47:07.679Z,99.90
2019-06-10T21:52:32.514Z,99.90
2019-06-10T22:04:13.375Z,99.90
2019-06-10T22:09:36.594Z,99.90
2019-06-10T22:15:01.623Z,99.90
2019-06-10T22:20:25.356Z,99.90
2019-06-10T22:25:49.366Z,99.90
2019-06-10T22:31:22.435Z,99.90
2019-06-10T22:36:37.922Z,99.90
2019-06-10T22:42:03.033Z,99.90
2019-06-10T22:47:25.772Z,99.90
2019-06-10T22:52:49.671Z,99.90
2019-06-10T22:58:15.119Z,99.90
2019-06-10T23:03:39.485Z,99.90
2019-06-10T23:09:05.075Z,99.90
2019-06-10T23:14:33.740Z,99.90
2019-06-10T23:19:58.433Z,99.90
2019-06-10T23:25:25.686Z,99.90
2019-06-10T23:30:55.289Z,99.90
2019-06-10T23:36:17.028Z,99.90
2019-06-10T23:41:43.398Z,99.90
2019-06-10T23:47:07.883Z,99.90
2019-06-10T23:52:33.046Z,99.90
2019-06-10T23:57:58.286Z,99.90
